createdAt,value
2019-03-15T00:00:44.499Z,4.20
2019-03-15T00:01:44.509Z,4.90
2019-03-15T00:02:44.480Z,5.10
2019-03-15T00:03:44.470Z,4.70
2019-03-15T00:04:44.502Z,4.80
2019-03-15T00:05:44.445Z,5.50
2019-03-15T00:06:44.442Z,5.60
2019-03-15T00:07:44.423Z,5.20
2019-03-15T00:08:44.415Z,4.60
2019-03-15T00:09:44.425Z,5.20
2019-03-15T00:10:44.390Z,4.80
2019-03-15T00:11:44.387Z,4.70
2019-03-15T00:12:44.374Z,4.80
2019-03-15T00:13:44.361Z,5.30
2019-03-15T00:14:44.376Z,5.30
2019-03-15T00:15:44.338Z,5.40
2019-03-15T00:16:44.326Z,5.00
2019-03-15T00:17:44.321Z,5.40
2019-03-15T00:18:44.311Z,5.40
2019-03-15T00:19:44.322Z,5.40
2019-03-15T00:20:44.287Z,5.10
2019-03-15T00:21:44.270Z,4.70
2019-03-15T00:22:44.264Z,5.10
2019-03-15T00:23:44.260Z,5.00
2019-03-15T00:24:44.821Z,5.50
2019-03-15T00:25:44.231Z,5.20
2019-03-15T00:26:44.219Z,5.10
2019-03-15T00:27:44.211Z,4.80
2019-03-15T00:28:44.197Z,5.50
2019-03-15T00:29:44.222Z,5.10
2019-03-15T00:30:44.188Z,5.30
2019-03-15T00:31:44.166Z,5.40
2019-03-15T00:32:44.160Z,5.70
2019-03-15T00:33:44.149Z,5.20
2019-03-15T00:34:44.161Z,5.00
2019-03-15T00:35:44.128Z,5.60
2019-03-15T00:36:44.131Z,5.40
2019-03-15T00:37:44.108Z,5.30
2019-03-15T00:38:44.095Z,5.00
2019-03-15T00:39:44.119Z,5.10
2019-03-15T00:40:44.076Z,5.20
2019-03-15T00:41:44.062Z,5.50
2019-03-15T00:42:44.054Z,5.10
2019-03-15T00:43:44.040Z,5.20
2019-03-15T00:44:44.054Z,5.30
2019-03-15T00:45:44.025Z,4.80
2019-03-15T00:46:44.015Z,5.60
2019-03-15T00:47:43.999Z,5.10
2019-03-15T00:48:43.986Z,5.30
2019-03-15T00:49:44.001Z,4.50
2019-03-15T00:50:43.962Z,5.20
2019-03-15T00:51:43.959Z,4.90
2019-03-15T00:52:43.947Z,5.50
2019-03-15T00:53:43.937Z,5.60
2019-03-15T00:54:43.951Z,5.40
2019-03-15T00:55:43.910Z,4.50
2019-03-15T00:56:43.898Z,5.20
2019-03-15T00:57:43.891Z,5.60
2019-03-15T00:58:43.887Z,5.30
2019-03-15T00:59:43.880Z,4.70
2019-03-15T01:00:43.901Z,4.90
2019-03-15T01:01:43.848Z,4.90
2019-03-15T01:02:44.376Z,4.90
2019-03-15T01:03:43.827Z,4.70
2019-03-15T01:04:43.816Z,4.90
2019-03-15T01:05:43.835Z,5.00
2019-03-15T01:06:43.792Z,5.00
2019-03-15T01:07:43.786Z,5.30
2019-03-15T01:08:43.770Z,5.10
2019-03-15T01:09:43.759Z,5.60
2019-03-15T01:10:43.781Z,4.90
2019-03-15T01:11:45.505Z,4.30
2019-03-15T01:12:43.725Z,5.20
2019-03-15T01:13:43.718Z,4.70
2019-03-15T01:14:43.706Z,4.50
2019-03-15T01:15:43.754Z,4.60
2019-03-15T01:16:43.688Z,5.00
2019-03-15T01:17:43.674Z,4.80
2019-03-15T01:18:44.577Z,4.40
2019-03-15T01:19:43.666Z,5.90
2019-03-15T01:20:43.674Z,5.00
2019-03-15T01:21:43.648Z,5.00
2019-03-15T01:22:43.629Z,4.40
2019-03-15T01:23:43.612Z,4.60
2019-03-15T01:24:43.607Z,5.30
2019-03-15T01:25:43.616Z,4.80
2019-03-15T01:26:43.578Z,4.60
2019-03-15T01:27:43.574Z,5.30
2019-03-15T01:28:43.572Z,5.20
2019-03-15T01:29:43.558Z,4.60
2019-03-15T01:30:43.580Z,4.60
2019-03-15T01:31:43.536Z,4.10
2019-03-15T01:32:43.523Z,4.80
2019-03-15T01:33:43.506Z,5.30
2019-03-15T01:34:43.492Z,5.30
2019-03-15T01:35:43.515Z,4.80
2019-03-15T01:36:43.475Z,4.30
2019-03-15T01:37:43.465Z,5.00
2019-03-15T01:38:43.459Z,4.20
2019-03-15T01:39:43.442Z,4.70
2019-03-15T01:40:43.456Z,4.90
2019-03-15T01:41:43.419Z,4.40
2019-03-15T01:42:43.413Z,4.70
2019-03-15T01:43:43.403Z,4.50
2019-03-15T01:44:43.390Z,4.70
2019-03-15T01:45:43.522Z,4.20
2019-03-15T01:46:43.367Z,4.00
2019-03-15T01:47:43.358Z,4.70
2019-03-15T01:48:43.351Z,4.60
2019-03-15T01:49:44.624Z,4.50
2019-03-15T01:50:43.351Z,4.50
2019-03-15T01:51:43.317Z,4.00
2019-03-15T01:52:43.303Z,4.50
2019-03-15T01:53:43.292Z,5.20
2019-03-15T01:54:43.296Z,4.60
2019-03-15T01:55:43.294Z,4.50
2019-03-15T01:56:43.261Z,4.60
2019-03-15T01:57:43.257Z,4.10
2019-03-15T01:58:43.244Z,5.10
2019-03-15T01:59:43.226Z,4.60
2019-03-15T02:00:43.271Z,4.30
2019-03-15T02:01:43.207Z,4.40
2019-03-15T02:02:43.196Z,4.50
2019-03-15T02:03:43.204Z,4.40
2019-03-15T02:04:43.183Z,4.60
2019-03-15T02:05:43.196Z,4.30
2019-03-15T02:06:43.685Z,4.80
2019-03-15T02:07:43.145Z,4.90
2019-03-15T02:08:43.133Z,4.60
2019-03-15T02:09:43.290Z,4.20
2019-03-15T02:10:43.142Z,4.50
2019-03-15T02:11:43.105Z,4.50
2019-03-15T02:12:43.087Z,5.10
2019-03-15T02:13:43.081Z,4.00
2019-03-15T02:14:43.068Z,4.00
2019-03-15T02:15:43.515Z,4.20
2019-03-15T02:16:43.053Z,4.20
2019-03-15T02:17:43.040Z,4.20
2019-03-15T02:18:43.037Z,4.20
2019-03-15T02:19:43.017Z,3.90
2019-03-15T02:20:43.036Z,4.20
2019-03-15T02:21:43.450Z,3.70
2019-03-15T02:22:42.987Z,4.30
2019-03-15T02:23:42.973Z,4.70
2019-03-15T02:24:43.080Z,4.50
2019-03-15T02:25:42.978Z,4.50
2019-03-15T02:26:42.946Z,4.50
2019-03-15T02:27:42.935Z,4.00
2019-03-15T02:28:42.918Z,4.50
2019-03-15T02:29:42.914Z,3.90
2019-03-15T02:30:42.927Z,4.60
2019-03-15T02:31:42.888Z,4.30
2019-03-15T02:32:42.878Z,4.60
2019-03-15T02:33:42.874Z,4.40
2019-03-15T02:34:42.856Z,4.50
2019-03-15T02:35:42.868Z,4.60
2019-03-15T02:36:42.836Z,4.30
2019-03-15T02:37:42.842Z,4.10
2019-03-15T02:38:42.815Z,4.50
2019-03-15T02:39:42.805Z,4.60
2019-03-15T02:40:42.833Z,4.20
2019-03-15T02:41:42.789Z,3.50
2019-03-15T02:42:42.780Z,3.50
2019-03-15T02:43:42.766Z,4.10
2019-03-15T02:44:42.752Z,4.40
2019-03-15T02:45:42.745Z,4.30
2019-03-15T02:46:42.765Z,4.00
2019-03-15T02:47:42.721Z,4.40
2019-03-15T02:48:42.719Z,4.20
2019-03-15T02:49:42.704Z,4.40
2019-03-15T02:50:42.693Z,4.10
2019-03-15T02:51:42.705Z,4.50
2019-03-15T02:52:42.665Z,4.10
2019-03-15T02:53:42.658Z,4.80
2019-03-15T02:54:42.649Z,4.10
2019-03-15T02:55:42.721Z,4.20
2019-03-15T02:56:42.827Z,5.30
2019-03-15T02:57:42.611Z,4.40
2019-03-15T02:58:42.599Z,4.00
2019-03-15T02:59:42.598Z,4.30
2019-03-15T03:00:42.622Z,3.50
2019-03-15T03:01:42.620Z,4.60
2019-03-15T03:02:42.575Z,4.10
2019-03-15T03:03:42.549Z,4.00
2019-03-15T03:04:42.540Z,4.20
2019-03-15T03:05:42.530Z,4.40
2019-03-15T03:06:42.551Z,4.00
2019-03-15T03:07:42.516Z,4.40
2019-03-15T03:08:42.509Z,4.10
2019-03-15T03:09:42.488Z,4.60
2019-03-15T03:10:42.478Z,3.90
2019-03-15T03:11:42.499Z,4.40
2019-03-15T03:12:43.976Z,4.20
2019-03-15T03:13:42.444Z,4.40
2019-03-15T03:14:42.433Z,5.10
2019-03-15T03:15:42.425Z,4.10
2019-03-15T03:16:42.440Z,4.10
2019-03-15T03:17:42.401Z,4.30
2019-03-15T03:18:42.393Z,3.90
2019-03-15T03:19:42.385Z,4.00
2019-03-15T03:20:42.393Z,4.30
2019-03-15T03:21:42.515Z,3.80
2019-03-15T03:22:42.355Z,4.10
2019-03-15T03:23:42.340Z,4.10
2019-03-15T03:24:42.330Z,4.10
2019-03-15T03:25:42.324Z,4.40
2019-03-15T03:26:42.338Z,4.70
2019-03-15T03:27:42.301Z,3.90
2019-03-15T03:28:42.301Z,4.80
2019-03-15T03:29:42.279Z,4.30
2019-03-15T03:30:42.277Z,4.00
2019-03-15T03:31:44.390Z,3.80
2019-03-15T03:32:44.145Z,4.30
2019-03-15T03:33:42.508Z,4.00
2019-03-15T03:34:42.241Z,4.00
2019-03-15T03:35:42.213Z,4.50
2019-03-15T03:36:42.236Z,4.00
2019-03-15T03:37:42.197Z,4.60
2019-03-15T03:38:42.181Z,4.60
2019-03-15T03:39:42.169Z,4.70
2019-03-15T03:40:42.162Z,4.30
2019-03-15T03:41:42.184Z,4.20
2019-03-15T03:42:42.145Z,4.40
2019-03-15T03:43:42.118Z,4.10
2019-03-15T03:44:42.124Z,4.30
2019-03-15T03:45:42.107Z,4.00
2019-03-15T03:46:42.122Z,5.00
2019-03-15T03:47:42.084Z,4.40
2019-03-15T03:48:42.081Z,4.70
2019-03-15T03:49:42.072Z,5.10
2019-03-15T03:50:42.058Z,5.50
2019-03-15T03:51:42.068Z,4.70
2019-03-15T03:52:42.181Z,4.20
2019-03-15T03:53:42.041Z,4.10
2019-03-15T03:54:42.024Z,4.40
2019-03-15T03:55:42.014Z,4.40
2019-03-15T03:56:42.021Z,4.30
2019-03-15T03:57:41.979Z,4.40
2019-03-15T03:58:41.969Z,4.70
2019-03-15T03:59:41.960Z,4.80
2019-03-15T04:00:41.948Z,4.60
2019-03-15T04:01:41.965Z,5.00
2019-03-15T04:02:41.928Z,5.10
2019-03-15T04:03:41.916Z,4.70
2019-03-15T04:04:41.907Z,4.00
2019-03-15T04:05:41.896Z,4.20
2019-03-15T04:06:41.913Z,4.50
2019-03-15T04:07:41.880Z,5.10
2019-03-15T04:08:41.869Z,4.60
2019-03-15T04:09:41.882Z,4.30
2019-03-15T04:10:41.844Z,4.70
2019-03-15T04:11:54.632Z,4.60
2019-03-15T04:12:42.829Z,4.40
2019-03-15T04:13:41.816Z,5.10
2019-03-15T04:14:41.805Z,4.30
2019-03-15T04:15:41.957Z,4.10
2019-03-15T04:16:41.970Z,4.40
2019-03-15T04:17:41.769Z,4.60
2019-03-15T04:18:41.768Z,4.60
2019-03-15T04:19:41.765Z,4.20
2019-03-15T04:20:42.466Z,5.00
2019-03-15T04:21:41.734Z,5.30
2019-03-15T04:22:41.755Z,4.40
2019-03-15T04:23:41.709Z,5.00
2019-03-15T04:24:41.701Z,4.80
2019-03-15T04:25:41.688Z,4.90
2019-03-15T04:26:41.845Z,5.50
2019-03-15T04:27:41.745Z,5.10
2019-03-15T04:28:41.652Z,4.60
2019-03-15T04:29:41.647Z,4.60
2019-03-15T04:30:41.634Z,4.70
2019-03-15T04:31:41.652Z,4.30
2019-03-15T04:32:41.638Z,4.80
2019-03-15T04:33:41.604Z,4.80
2019-03-15T04:34:41.594Z,5.10
2019-03-15T04:35:41.581Z,5.20
2019-03-15T04:36:41.611Z,4.70
2019-03-15T04:37:41.585Z,5.30
2019-03-15T04:38:41.548Z,5.40
2019-03-15T04:39:41.537Z,5.40
2019-03-15T04:40:41.525Z,4.90
2019-03-15T04:41:41.527Z,5.60
2019-03-15T04:42:41.531Z,5.90
2019-03-15T04:43:41.503Z,5.50
2019-03-15T04:44:41.483Z,6.00
2019-03-15T04:45:41.477Z,5.90
2019-03-15T04:46:41.468Z,6.10
2019-03-15T04:47:43.554Z,5.30
2019-03-15T04:48:41.439Z,6.40
2019-03-15T04:49:41.433Z,6.80
2019-03-15T04:50:41.419Z,6.70
2019-03-15T04:51:41.407Z,6.30
2019-03-15T04:52:41.430Z,6.90
2019-03-15T04:53:41.399Z,6.70
2019-03-15T04:54:41.380Z,7.20
2019-03-15T04:55:41.366Z,6.10
2019-03-15T04:56:41.361Z,6.70
2019-03-15T04:57:41.383Z,6.60
2019-03-15T04:58:41.335Z,6.20
2019-03-15T04:59:41.328Z,6.50
2019-03-15T05:00:41.471Z,6.70
2019-03-15T05:01:41.347Z,6.60
2019-03-15T05:02:41.374Z,6.10
2019-03-15T05:03:41.283Z,6.00
2019-03-15T05:04:41.278Z,6.20
2019-03-15T05:05:41.276Z,5.80
2019-03-15T05:06:41.251Z,6.40
2019-03-15T05:07:41.314Z,5.90
2019-03-15T05:08:41.267Z,5.10
2019-03-15T05:09:41.223Z,6.30
2019-03-15T05:10:50.113Z,7.00
2019-03-15T05:11:41.202Z,6.40
2019-03-15T05:12:41.220Z,5.80
2019-03-15T05:13:41.182Z,5.60
2019-03-15T05:14:41.179Z,5.80
2019-03-15T05:15:41.161Z,5.80
2019-03-15T05:16:41.146Z,6.00
2019-03-15T05:17:41.165Z,6.80
2019-03-15T05:18:41.127Z,6.00
2019-03-15T05:19:41.119Z,6.00
2019-03-15T05:20:41.102Z,6.40
2019-03-15T05:21:41.095Z,5.90
2019-03-15T05:22:41.113Z,7.00
2019-03-15T05:23:41.077Z,6.10
2019-03-15T05:24:41.067Z,6.20
2019-03-15T05:25:41.056Z,5.90
2019-03-15T05:26:41.042Z,6.50
2019-03-15T05:27:41.070Z,6.40
2019-03-15T05:28:41.022Z,6.30
2019-03-15T05:29:41.007Z,6.70
2019-03-15T05:30:41.003Z,6.50
2019-03-15T05:31:40.987Z,6.90
2019-03-15T05:32:41.003Z,6.90
2019-03-15T05:33:40.972Z,6.30
2019-03-15T05:34:40.975Z,7.70
2019-03-15T05:35:40.953Z,7.40
2019-03-15T05:36:40.939Z,7.20
2019-03-15T05:37:41.155Z,7.40
2019-03-15T05:38:40.916Z,7.70
2019-03-15T05:39:40.904Z,7.40
2019-03-15T05:40:40.898Z,8.00
2019-03-15T05:41:40.888Z,8.50
2019-03-15T05:42:40.906Z,8.50
2019-03-15T05:43:40.864Z,8.40
2019-03-15T05:44:40.851Z,8.30
2019-03-15T05:45:40.845Z,9.00
2019-03-15T05:46:40.839Z,8.50
2019-03-15T05:47:40.890Z,9.10
2019-03-15T05:48:40.808Z,9.70
2019-03-15T05:49:40.802Z,9.50
2019-03-15T05:50:41.022Z,10.20
2019-03-15T05:51:40.782Z,9.40
2019-03-15T05:52:40.773Z,10.00
2019-03-15T05:53:40.783Z,9.10
2019-03-15T05:54:40.753Z,9.60
2019-03-15T05:55:40.744Z,9.50
2019-03-15T05:56:40.751Z,9.30
2019-03-15T05:57:40.723Z,9.10
2019-03-15T05:58:40.741Z,10.20
2019-03-15T05:59:40.697Z,8.20
2019-03-15T06:00:40.691Z,10.30
2019-03-15T06:01:40.671Z,9.40
2019-03-15T06:02:40.666Z,10.20
2019-03-15T06:03:48.622Z,9.70
2019-03-15T06:04:41.644Z,10.00
2019-03-15T06:05:41.666Z,9.40
2019-03-15T06:06:41.096Z,10.30
2019-03-15T06:07:40.673Z,9.30
2019-03-15T06:08:41.583Z,10.40
2019-03-15T06:09:40.589Z,11.60
2019-03-15T06:10:40.579Z,10.20
2019-03-15T06:11:40.576Z,12.20
2019-03-15T06:12:40.559Z,11.20
2019-03-15T06:13:40.576Z,10.90
2019-03-15T06:14:40.538Z,11.40
2019-03-15T06:15:40.527Z,12.30
2019-03-15T06:16:40.521Z,12.80
2019-03-15T06:17:40.504Z,12.30
2019-03-15T06:18:40.519Z,12.30
2019-03-15T06:19:40.482Z,11.60
2019-03-15T06:20:40.476Z,12.20
2019-03-15T06:21:40.466Z,11.60
2019-03-15T06:22:40.485Z,12.60
2019-03-15T06:23:40.485Z,14.10
2019-03-15T06:24:40.431Z,10.10
2019-03-15T06:25:40.418Z,10.60
2019-03-15T06:26:40.413Z,11.30
2019-03-15T06:27:40.405Z,10.90
2019-03-15T06:28:40.415Z,10.80
2019-03-15T06:29:40.375Z,10.50
2019-03-15T06:30:40.370Z,10.20
2019-03-15T06:31:40.355Z,10.00
2019-03-15T06:32:40.362Z,10.50
2019-03-15T06:33:40.480Z,10.40
2019-03-15T06:34:40.324Z,10.60
2019-03-15T06:35:40.325Z,9.40
2019-03-15T06:36:40.303Z,10.00
2019-03-15T06:37:40.292Z,9.70
2019-03-15T06:38:40.327Z,9.80
2019-03-15T06:39:40.328Z,9.30
2019-03-15T06:40:40.263Z,9.10
2019-03-15T06:41:40.256Z,9.30
2019-03-15T06:42:40.240Z,8.90
2019-03-15T06:43:40.229Z,8.60
2019-03-15T06:44:40.244Z,9.70
2019-03-15T06:45:41.797Z,8.20
2019-03-15T06:46:40.196Z,9.00
2019-03-15T06:47:40.195Z,8.20
2019-03-15T06:48:40.205Z,9.00
2019-03-15T06:49:40.189Z,8.20
2019-03-15T06:50:40.159Z,8.60
2019-03-15T06:51:40.150Z,9.00
2019-03-15T06:52:40.130Z,8.60
2019-03-15T06:53:40.154Z,8.20
2019-03-15T06:54:40.114Z,7.90
2019-03-15T06:55:40.108Z,7.50
2019-03-15T06:56:40.538Z,8.10
2019-03-15T06:57:40.080Z,8.40
2019-03-15T06:58:40.104Z,8.30
2019-03-15T06:59:40.059Z,7.70
2019-03-15T07:00:40.054Z,8.10
2019-03-15T07:01:40.043Z,7.70
2019-03-15T07:02:40.039Z,7.80
2019-03-15T07:03:40.050Z,6.60
2019-03-15T07:04:40.006Z,7.10
2019-03-15T07:05:39.994Z,7.70
2019-03-15T07:06:39.988Z,7.50
2019-03-15T07:07:39.981Z,7.00
2019-03-15T07:08:40.101Z,7.00
2019-03-15T07:09:39.951Z,7.30
2019-03-15T07:10:39.946Z,7.70
2019-03-15T07:11:39.931Z,6.80
2019-03-15T07:12:40.550Z,7.10
2019-03-15T07:13:39.936Z,6.40
2019-03-15T07:14:39.930Z,6.80
2019-03-15T07:15:39.890Z,7.20
2019-03-15T07:16:39.878Z,6.90
2019-03-15T07:17:39.867Z,6.70
2019-03-15T07:18:39.886Z,6.80
2019-03-15T07:19:39.858Z,6.70
2019-03-15T07:20:39.838Z,6.20
2019-03-15T07:21:39.822Z,6.70
2019-03-15T07:22:39.816Z,7.40
2019-03-15T07:23:39.841Z,7.00
2019-03-15T07:24:39.799Z,7.10
2019-03-15T07:25:39.790Z,6.60
2019-03-15T07:26:39.771Z,6.70
2019-03-15T07:27:42.493Z,6.50
2019-03-15T07:28:39.785Z,6.40
2019-03-15T07:29:39.738Z,7.30
2019-03-15T07:30:39.737Z,6.50
2019-03-15T07:31:39.720Z,6.60
2019-03-15T07:32:39.716Z,6.90
2019-03-15T07:33:39.701Z,7.30
2019-03-15T07:34:39.712Z,6.80
2019-03-15T07:35:39.678Z,7.50
2019-03-15T07:36:39.692Z,7.50
2019-03-15T07:37:39.665Z,7.00
2019-03-15T07:38:39.650Z,7.10
2019-03-15T07:39:39.658Z,7.00
2019-03-15T07:40:39.630Z,6.90
2019-03-15T07:41:39.620Z,7.40
2019-03-15T07:42:39.610Z,8.20
2019-03-15T07:43:39.591Z,7.40
2019-03-15T07:44:39.621Z,7.70
2019-03-15T07:45:39.569Z,8.10
2019-03-15T07:46:39.561Z,7.90
2019-03-15T07:47:39.555Z,7.90
2019-03-15T07:48:39.548Z,8.10
2019-03-15T07:49:39.563Z,8.60
2019-03-15T07:50:39.516Z,9.20
2019-03-15T07:51:39.543Z,9.10
2019-03-15T07:52:39.497Z,8.30
2019-03-15T07:53:39.491Z,8.20
2019-03-15T07:54:39.512Z,8.50
2019-03-15T07:55:39.462Z,8.70
2019-03-15T07:56:39.456Z,8.50
2019-03-15T07:57:39.438Z,9.30
2019-03-15T07:58:39.434Z,9.30
2019-03-15T07:59:39.451Z,8.90
2019-03-15T08:00:39.421Z,9.90
2019-03-15T08:01:39.434Z,9.40
2019-03-15T08:02:39.390Z,9.50
2019-03-15T08:03:39.395Z,11.30
2019-03-15T08:04:39.389Z,9.70
2019-03-15T08:05:39.359Z,9.40
2019-03-15T08:06:39.362Z,11.10
2019-03-15T08:07:44.824Z,10.40
2019-03-15T08:08:40.472Z,9.80
2019-03-15T08:09:39.349Z,9.80
2019-03-15T08:10:39.305Z,10.00
2019-03-15T08:11:39.296Z,10.70
2019-03-15T08:12:39.277Z,10.50
2019-03-15T08:13:39.268Z,10.60
2019-03-15T08:14:39.284Z,10.40
2019-03-15T08:15:39.245Z,10.80
2019-03-15T08:16:39.245Z,11.30
2019-03-15T08:17:39.244Z,11.40
2019-03-15T08:18:39.219Z,11.70
2019-03-15T08:19:39.251Z,11.10
2019-03-15T08:20:39.205Z,12.70
2019-03-15T08:21:39.182Z,12.40
2019-03-15T08:22:39.187Z,11.50
2019-03-15T08:23:39.163Z,12.70
2019-03-15T08:24:50.974Z,13.10
2019-03-15T08:25:40.134Z,12.10
2019-03-15T08:26:39.132Z,14.40
2019-03-15T08:27:39.269Z,13.50
2019-03-15T08:28:39.115Z,15.40
2019-03-15T08:29:39.147Z,14.20
2019-03-15T08:30:39.088Z,13.90
2019-03-15T08:31:39.086Z,14.00
2019-03-15T08:32:39.086Z,14.20
2019-03-15T08:33:39.057Z,14.10
2019-03-15T08:34:39.067Z,12.70
2019-03-15T08:35:39.034Z,13.30
2019-03-15T08:36:39.025Z,13.20
2019-03-15T08:37:39.019Z,14.00
2019-03-15T08:38:47.370Z,13.00
2019-03-15T08:39:40.017Z,14.10
2019-03-15T08:40:38.990Z,13.50
2019-03-15T08:41:38.970Z,13.90
2019-03-15T08:42:38.962Z,14.40
2019-03-15T08:43:38.954Z,13.30
2019-03-15T08:44:38.967Z,13.80
2019-03-15T08:45:38.939Z,14.00
2019-03-15T08:46:38.943Z,14.50
2019-03-15T08:47:38.903Z,13.30
2019-03-15T08:48:38.900Z,12.30
2019-03-15T08:49:38.914Z,12.80
2019-03-15T08:50:38.871Z,12.20
2019-03-15T08:51:38.862Z,13.10
2019-03-15T08:52:42.024Z,13.50
2019-03-15T08:53:38.843Z,12.70
2019-03-15T08:54:38.858Z,14.50
2019-03-15T08:55:40.029Z,14.90
2019-03-15T08:56:38.807Z,14.20
2019-03-15T08:57:38.797Z,13.90
2019-03-15T08:58:38.786Z,13.20
2019-03-15T08:59:52.540Z,14.80
2019-03-15T09:00:39.767Z,14.60
2019-03-15T09:01:38.757Z,13.40
2019-03-15T09:02:38.743Z,13.20
2019-03-15T09:03:38.739Z,14.90
2019-03-15T09:04:38.760Z,13.40
2019-03-15T09:05:38.718Z,14.80
2019-03-15T09:06:40.982Z,16.90
2019-03-15T09:07:38.689Z,16.40
2019-03-15T09:08:38.679Z,15.90
2019-03-15T09:09:38.670Z,16.30
2019-03-15T09:10:38.685Z,15.50
2019-03-15T09:11:38.657Z,16.10
2019-03-15T09:12:38.641Z,15.90
2019-03-15T09:13:38.625Z,17.60
2019-03-15T09:14:38.622Z,18.70
2019-03-15T09:15:38.636Z,17.40
2019-03-15T09:16:38.598Z,16.00
2019-03-15T09:17:38.594Z,17.30
2019-03-15T09:18:38.577Z,18.00
2019-03-15T09:19:38.568Z,17.40
2019-03-15T09:20:38.585Z,18.20
2019-03-15T09:21:38.549Z,18.50
2019-03-15T09:22:38.536Z,17.20
2019-03-15T09:23:38.526Z,18.70
2019-03-15T09:24:38.514Z,17.30
2019-03-15T09:25:38.534Z,18.10
2019-03-15T09:26:38.501Z,16.50
2019-03-15T09:27:38.484Z,16.60
2019-03-15T09:28:38.474Z,18.90
2019-03-15T09:29:38.470Z,18.70
2019-03-15T09:30:38.480Z,19.30
2019-03-15T09:31:47.724Z,20.00
2019-03-15T09:32:39.431Z,18.70
2019-03-15T09:33:38.424Z,19.50
2019-03-15T09:34:38.462Z,19.10
2019-03-15T09:35:38.430Z,17.80
2019-03-15T09:36:49.453Z,20.30
2019-03-15T09:37:39.379Z,19.90
2019-03-15T09:38:38.377Z,19.80
2019-03-15T09:39:38.358Z,18.90
2019-03-15T09:40:38.394Z,20.50
2019-03-15T09:41:40.140Z,19.40
2019-03-15T09:42:38.326Z,18.60
2019-03-15T09:43:38.318Z,19.80
2019-03-15T09:44:38.310Z,18.80
2019-03-15T09:45:38.326Z,20.00
2019-03-15T09:46:38.285Z,19.30
2019-03-15T09:47:38.286Z,18.10
2019-03-15T09:48:38.269Z,18.00
2019-03-15T09:49:38.256Z,18.90
2019-03-15T09:50:50.587Z,18.20
2019-03-15T09:51:39.233Z,20.00
2019-03-15T09:52:38.223Z,20.30
2019-03-15T09:53:38.215Z,20.00
2019-03-15T09:54:38.203Z,20.20
2019-03-15T09:55:38.215Z,19.70
2019-03-15T09:56:38.182Z,19.90
2019-03-15T09:57:38.170Z,21.20
2019-03-15T09:58:38.162Z,17.70
2019-03-15T09:59:38.150Z,19.30
2019-03-15T10:00:38.176Z,18.50
2019-03-15T10:01:38.138Z,19.40
2019-03-15T10:02:38.118Z,15.60
2019-03-15T10:03:38.128Z,17.10
2019-03-15T10:04:38.099Z,18.70
2019-03-15T10:05:38.116Z,16.70
2019-03-15T10:06:38.079Z,17.30
2019-03-15T10:07:39.008Z,16.90
2019-03-15T10:08:38.059Z,16.90
2019-03-15T10:09:45.625Z,17.50
2019-03-15T10:10:39.063Z,18.00
2019-03-15T10:11:38.035Z,18.20
2019-03-15T10:12:38.017Z,18.10
2019-03-15T10:13:38.014Z,19.10
2019-03-15T10:14:38.001Z,16.50
2019-03-15T10:15:38.058Z,18.00
2019-03-15T10:16:37.974Z,16.60
2019-03-15T10:17:37.963Z,16.70
2019-03-15T10:18:37.957Z,15.50
2019-03-15T10:19:37.942Z,16.40
2019-03-15T10:20:37.958Z,16.00
2019-03-15T10:21:37.919Z,17.70
2019-03-15T10:22:37.911Z,15.60
2019-03-15T10:23:37.908Z,16.80
2019-03-15T10:24:37.894Z,18.30
2019-03-15T10:25:46.688Z,16.20
2019-03-15T10:26:38.872Z,17.90
2019-03-15T10:27:37.861Z,17.00
2019-03-15T10:28:37.848Z,15.80
2019-03-15T10:29:37.835Z,16.80
2019-03-15T10:30:37.853Z,19.60
2019-03-15T10:31:37.815Z,21.40
2019-03-15T10:32:37.807Z,20.30
2019-03-15T10:33:49.748Z,20.10
2019-03-15T10:34:38.787Z,20.10
2019-03-15T10:35:37.818Z,19.90
2019-03-15T10:36:37.781Z,18.90
2019-03-15T10:37:37.760Z,17.40
2019-03-15T10:38:37.748Z,17.20
2019-03-15T10:39:37.735Z,16.40
2019-03-15T10:40:37.729Z,16.90
2019-03-15T10:41:38.377Z,16.90
2019-03-15T10:42:37.705Z,14.40
2019-03-15T10:43:37.694Z,16.20
2019-03-15T10:44:37.683Z,14.70
2019-03-15T10:45:37.678Z,14.00
2019-03-15T10:46:37.687Z,13.10
2019-03-15T10:47:37.653Z,14.60
2019-03-15T10:48:37.650Z,14.80
2019-03-15T10:49:37.642Z,14.30
2019-03-15T10:50:37.620Z,13.80
2019-03-15T10:51:37.631Z,13.90
2019-03-15T10:52:37.600Z,14.30
2019-03-15T10:53:37.596Z,14.60
2019-03-15T10:54:37.579Z,15.80
2019-03-15T10:55:37.566Z,16.50
2019-03-15T10:56:37.589Z,15.60
2019-03-15T10:57:37.544Z,15.40
2019-03-15T10:58:37.537Z,15.80
2019-03-15T10:59:37.525Z,16.60
2019-03-15T11:00:37.507Z,17.30
2019-03-15T11:01:37.533Z,18.50
2019-03-15T11:02:37.491Z,18.10
2019-03-15T11:03:37.475Z,19.20
2019-03-15T11:04:37.467Z,19.30
2019-03-15T11:05:37.459Z,19.00
2019-03-15T11:06:37.475Z,22.90
2019-03-15T11:07:37.430Z,21.60
2019-03-15T11:08:37.428Z,24.20
2019-03-15T11:09:37.412Z,23.60
2019-03-15T11:10:38.564Z,24.80
2019-03-15T11:11:37.411Z,25.80
2019-03-15T11:12:37.383Z,25.70
2019-03-15T11:13:37.372Z,22.60
2019-03-15T11:14:37.359Z,24.30
2019-03-15T11:15:37.344Z,24.60
2019-03-15T11:16:37.368Z,25.90
2019-03-15T11:17:37.319Z,24.10
2019-03-15T11:18:37.312Z,24.80
2019-03-15T11:19:37.306Z,25.70
2019-03-15T11:20:37.295Z,24.80
2019-03-15T11:21:37.305Z,26.30
2019-03-15T11:22:37.271Z,25.70
2019-03-15T11:23:37.257Z,26.00
2019-03-15T11:24:37.249Z,25.40
2019-03-15T11:25:37.240Z,24.60
2019-03-15T11:26:37.253Z,26.40
2019-03-15T11:27:37.215Z,23.90
2019-03-15T11:28:37.207Z,24.00
2019-03-15T11:29:37.193Z,24.40
2019-03-15T11:30:37.184Z,21.80
2019-03-15T11:31:37.203Z,28.00
2019-03-15T11:32:37.167Z,23.70
2019-03-15T11:33:37.151Z,23.80
2019-03-15T11:34:37.148Z,23.60
2019-03-15T11:35:37.130Z,21.20
2019-03-15T11:36:37.143Z,22.80
2019-03-15T11:37:37.107Z,23.00
2019-03-15T11:38:37.096Z,24.30
2019-03-15T11:39:37.086Z,23.40
2019-03-15T11:40:38.173Z,23.20
2019-03-15T11:41:37.094Z,26.20
2019-03-15T11:42:37.055Z,25.80
2019-03-15T11:43:37.038Z,21.80
2019-03-15T11:44:37.031Z,20.50
2019-03-15T11:45:37.021Z,23.70
2019-03-15T11:46:37.036Z,23.90
2019-03-15T11:48:00.580Z,19.50
2019-03-15T11:48:37.986Z,17.80
2019-03-15T11:49:36.975Z,17.40
2019-03-15T11:50:36.969Z,17.90
2019-03-15T11:51:36.982Z,16.40
2019-03-15T11:52:36.944Z,16.70
2019-03-15T11:53:36.937Z,16.90
2019-03-15T11:54:36.926Z,17.00
2019-03-15T11:55:36.910Z,18.30
2019-03-15T11:56:36.927Z,16.90
2019-03-15T11:57:36.897Z,16.30
2019-03-15T11:58:36.887Z,15.60
2019-03-15T11:59:36.884Z,14.20
2019-03-15T12:00:36.859Z,15.30
2019-03-15T12:01:37.879Z,11.50
2019-03-15T12:02:36.846Z,13.50
2019-03-15T12:03:36.840Z,12.40
2019-03-15T12:04:36.822Z,13.50
2019-03-15T12:05:36.811Z,14.80
2019-03-15T12:06:36.836Z,16.10
2019-03-15T12:07:36.787Z,13.60
2019-03-15T12:08:36.786Z,14.80
2019-03-15T12:09:36.768Z,13.70
2019-03-15T12:10:36.758Z,16.10
2019-03-15T12:11:36.749Z,13.50
2019-03-15T12:12:36.766Z,11.90
2019-03-15T12:13:36.741Z,11.70
2019-03-15T12:14:41.226Z,9.10
2019-03-15T12:15:36.705Z,11.70
2019-03-15T12:16:36.694Z,10.60
2019-03-15T12:17:36.710Z,10.40
2019-03-15T12:18:36.668Z,9.40
2019-03-15T12:19:36.660Z,8.90
2019-03-15T12:20:36.658Z,8.40
2019-03-15T12:21:36.636Z,9.40
2019-03-15T12:22:36.654Z,7.40
2019-03-15T12:23:36.619Z,9.30
2019-03-15T12:24:36.604Z,8.00
2019-03-15T12:25:36.600Z,6.20
2019-03-15T12:26:40.540Z,7.70
2019-03-15T12:27:36.603Z,7.00
2019-03-15T12:28:36.566Z,6.60
2019-03-15T12:29:36.553Z,7.00
2019-03-15T12:30:36.546Z,6.40
2019-03-15T12:31:36.536Z,6.20
2019-03-15T12:32:36.548Z,5.80
2019-03-15T12:33:36.512Z,6.80
2019-03-15T12:34:36.503Z,6.60
2019-03-15T12:35:36.486Z,6.50
2019-03-15T12:36:36.480Z,7.00
2019-03-15T12:37:36.492Z,6.80
2019-03-15T12:38:36.456Z,6.00
2019-03-15T12:39:36.447Z,6.50
2019-03-15T12:40:36.434Z,6.10
2019-03-15T12:41:36.432Z,5.10
2019-03-15T12:42:36.443Z,4.80
2019-03-15T12:43:36.411Z,6.60
2019-03-15T12:44:36.393Z,5.60
2019-03-15T12:45:36.437Z,6.10
2019-03-15T12:46:36.373Z,7.20
2019-03-15T12:47:36.387Z,7.30
2019-03-15T12:48:36.356Z,6.80
2019-03-15T12:49:36.353Z,6.40
2019-03-15T12:50:36.336Z,8.20
2019-03-15T12:51:36.319Z,7.00
2019-03-15T12:52:46.555Z,7.00
2019-03-15T12:53:37.301Z,7.50
2019-03-15T12:54:36.286Z,8.20
2019-03-15T12:55:36.284Z,7.50
2019-03-15T12:56:36.275Z,8.10
2019-03-15T12:57:36.284Z,8.40
2019-03-15T12:58:36.253Z,7.50
2019-03-15T12:59:36.238Z,7.10
2019-03-15T13:00:36.224Z,7.80
2019-03-15T13:01:36.215Z,9.00
2019-03-15T13:02:36.237Z,9.90
2019-03-15T13:03:36.200Z,10.50
2019-03-15T13:04:36.184Z,9.40
2019-03-15T13:05:36.171Z,11.20
2019-03-15T13:06:36.165Z,10.70
2019-03-15T13:07:36.202Z,8.20
2019-03-15T13:08:36.138Z,7.30